createdAt,value
2019-05-10T00:02:12.508Z,0.87
2019-05-10T00:04:58.316Z,0.90
2019-05-10T00:07:44.212Z,0.90
2019-05-10T00:10:11.374Z,0.90
2019-05-10T00:12:50.228Z,0.87
2019-05-10T00:15:20.681Z,0.80
2019-05-10T00:17:49.883Z,1.00
2019-05-10T00:20:17.279Z,0.90
2019-05-10T00:22:44.709Z,0.80
2019-05-10T00:25:12.105Z,0.70
2019-05-10T00:27:39.500Z,0.90
2019-05-10T00:30:07.300Z,0.90
2019-05-10T00:32:34.692Z,0.90
2019-05-10T00:35:02.085Z,0.80
2019-05-10T00:37:29.684Z,0.90
2019-05-10T00:39:57.077Z,0.87
2019-05-10T00:42:24.503Z,1.10
2019-05-10T00:44:52.039Z,1.10
2019-05-10T00:47:19.363Z,1.00
2019-05-10T00:49:46.751Z,1.27
2019-05-10T00:52:14.222Z,0.80
2019-05-10T00:54:42.707Z,0.90
2019-05-10T00:57:10.187Z,1.10
2019-05-10T00:59:37.967Z,1.00
2019-05-10T01:02:05.755Z,1.20
2019-05-10T01:04:33.150Z,1.00
2019-05-10T01:07:00.583Z,0.90
2019-05-10T01:09:27.980Z,0.90
2019-05-10T01:11:55.371Z,1.00
2019-05-10T01:14:22.795Z,0.90
2019-05-10T01:16:50.191Z,1.00
2019-05-10T01:19:17.591Z,0.70
2019-05-10T01:21:45.123Z,0.80
2019-05-10T01:24:12.515Z,0.83
2019-05-10T01:26:39.903Z,0.73
2019-05-10T01:29:07.323Z,0.90
2019-05-10T01:31:34.715Z,0.80
2019-05-10T01:34:02.112Z,0.83
2019-05-10T01:36:29.700Z,0.80
2019-05-10T01:38:57.091Z,1.10
2019-05-10T01:41:24.507Z,0.80
2019-05-10T01:43:52.487Z,0.80
2019-05-10T01:46:19.884Z,0.80
2019-05-10T01:48:47.296Z,1.30
2019-05-10T01:51:14.723Z,1.20
2019-05-10T01:53:42.270Z,1.00
2019-05-10T01:56:09.677Z,1.10
2019-05-10T01:58:37.272Z,0.90
2019-05-10T02:01:04.992Z,0.93
2019-05-10T02:03:32.390Z,1.00
2019-05-10T02:05:59.860Z,1.03
2019-05-10T02:08:27.251Z,1.00
2019-05-10T02:10:54.653Z,0.93
2019-05-10T02:13:22.180Z,1.20
2019-05-10T02:15:49.588Z,1.23
2019-05-10T02:18:16.980Z,1.00
2019-05-10T02:20:44.414Z,1.07
2019-05-10T02:23:11.808Z,1.10
2019-05-10T02:25:39.207Z,0.90
2019-05-10T02:28:06.639Z,0.90
2019-05-10T02:30:34.034Z,0.80
2019-05-10T02:33:01.433Z,0.80
2019-05-10T02:35:28.885Z,0.80
2019-05-10T02:37:56.278Z,0.73
2019-05-10T02:40:23.664Z,0.70
2019-05-10T02:42:51.149Z,0.70
2019-05-10T02:45:18.629Z,1.10
2019-05-10T02:47:46.016Z,1.30
2019-05-10T02:50:13.476Z,0.90
2019-05-10T02:52:40.864Z,0.80
2019-05-10T02:55:08.678Z,0.77
2019-05-10T02:57:36.456Z,0.80
2019-05-10T03:00:06.182Z,0.80
2019-05-10T03:02:35.003Z,0.97
2019-05-10T03:05:04.099Z,0.80
2019-05-10T03:07:36.013Z,0.70
2019-05-10T03:10:05.307Z,0.80
2019-05-10T03:12:36.356Z,1.60
2019-05-10T03:15:04.751Z,1.20
2019-05-10T03:17:32.140Z,2.00
2019-05-10T03:20:00.415Z,2.10
2019-05-10T03:22:27.813Z,1.40
2019-05-10T03:24:55.215Z,1.20
2019-05-10T03:27:22.667Z,1.30
2019-05-10T03:29:50.499Z,1.90
2019-05-10T03:32:17.880Z,1.60
2019-05-10T03:34:46.221Z,1.27
2019-05-10T03:37:13.809Z,1.10
2019-05-10T03:39:41.197Z,1.00
2019-05-10T03:42:08.805Z,1.00
2019-05-10T03:44:36.203Z,1.03
2019-05-10T03:47:03.595Z,1.10
2019-05-10T03:49:31.051Z,0.80
2019-05-10T03:51:58.423Z,0.87
2019-05-10T03:54:25.824Z,1.07
2019-05-10T03:57:10.866Z,0.80
2019-05-10T03:59:23.101Z,1.00
2019-05-10T04:01:50.686Z,0.90
2019-05-10T04:04:18.125Z,1.10
2019-05-10T04:06:45.514Z,1.00
2019-05-10T04:09:12.911Z,1.23
2019-05-10T04:11:40.353Z,1.27
2019-05-10T04:14:07.756Z,7.33
2019-05-10T04:16:35.169Z,5.07
2019-05-10T04:19:02.896Z,3.03
2019-05-10T04:21:30.301Z,1.70
2019-05-10T04:23:57.725Z,1.40
2019-05-10T04:26:25.377Z,1.20
2019-05-10T04:28:52.781Z,1.50
2019-05-10T04:31:20.166Z,1.30
2019-05-10T04:33:47.648Z,1.20
2019-05-10T04:36:15.066Z,1.30
2019-05-10T04:38:42.454Z,0.90
2019-05-10T04:41:09.885Z,1.20
2019-05-10T04:43:37.276Z,1.10
2019-05-10T04:46:04.794Z,6.17
2019-05-10T04:48:32.240Z,2.60
2019-05-10T04:50:59.640Z,1.50
2019-05-10T04:53:27.056Z,1.20
2019-05-10T04:55:54.533Z,1.60
2019-05-10T04:58:21.920Z,1.57
2019-05-10T05:00:49.444Z,1.10
2019-05-10T05:03:17.093Z,1.30
2019-05-10T05:05:44.492Z,0.93
2019-05-10T05:08:11.903Z,1.00
2019-05-10T05:10:39.364Z,1.07
2019-05-10T05:13:06.799Z,1.20
2019-05-10T05:15:34.165Z,1.20
2019-05-10T05:18:01.696Z,1.00
2019-05-10T05:20:29.107Z,1.10
2019-05-10T05:22:56.507Z,1.07
2019-05-10T05:25:24.071Z,1.40
2019-05-10T05:28:06.480Z,1.60
2019-05-10T05:30:20.680Z,1.30
2019-05-10T05:32:48.395Z,1.23
2019-05-10T05:35:15.798Z,1.00
2019-05-10T05:37:43.195Z,1.00
2019-05-10T05:40:11.133Z,1.00
2019-05-10T05:42:38.619Z,1.30
2019-05-10T05:45:07.140Z,1.20
2019-05-10T05:47:37.470Z,1.20
2019-05-10T05:50:04.261Z,1.17
2019-05-10T05:52:51.250Z,1.03
2019-05-10T05:55:22.727Z,1.10
2019-05-10T06:00:37.865Z,1.10
2019-05-10T06:03:04.180Z,1.30
2019-05-10T06:05:34.583Z,1.10
2019-05-10T06:08:01.192Z,1.13
2019-05-10T06:10:28.579Z,1.40
2019-05-10T06:12:55.999Z,1.20
2019-05-10T06:15:28.848Z,1.20
2019-05-10T06:17:57.060Z,0.97
2019-05-10T06:20:21.847Z,1.10
2019-05-10T06:23:05.833Z,1.07
2019-05-10T06:25:18.824Z,1.10
2019-05-10T06:27:46.430Z,1.00
2019-05-10T06:30:14.467Z,1.20
2019-05-10T06:32:41.863Z,1.07
2019-05-10T06:35:14.207Z,1.03
2019-05-10T06:37:38.903Z,0.97
2019-05-10T06:40:07.244Z,1.10
2019-05-10T06:42:36.176Z,1.10
2019-05-10T06:45:14.265Z,1.00
2019-05-10T06:47:34.303Z,0.97
2019-05-10T06:50:01.701Z,1.03
2019-05-10T06:52:29.881Z,1.10
2019-05-10T06:54:58.734Z,0.90
2019-05-10T06:57:26.339Z,1.27
2019-05-10T06:59:56.493Z,1.00
2019-05-10T07:02:26.767Z,1.00
2019-05-10T07:04:52.671Z,0.83
2019-05-10T07:07:42.768Z,1.03
2019-05-10T07:10:13.022Z,1.10
2019-05-10T07:12:18.959Z,1.10
2019-05-10T07:14:46.910Z,1.00
2019-05-10T07:17:14.478Z,0.83
2019-05-10T07:19:53.270Z,1.20
2019-05-10T07:22:11.140Z,0.90
2019-05-10T07:24:38.531Z,0.90
2019-05-10T07:27:06.107Z,1.00
2019-05-10T07:29:41.939Z,1.07
2019-05-10T07:32:03.344Z,0.90
2019-05-10T07:34:30.739Z,1.00
2019-05-10T07:37:01.723Z,0.90
2019-05-10T07:39:27.555Z,1.00
2019-05-10T07:42:00.195Z,1.00
2019-05-10T07:44:24.177Z,1.10
2019-05-10T07:46:56.401Z,0.90
2019-05-10T07:49:23.966Z,0.80
2019-05-10T07:51:50.023Z,1.00
2019-05-10T07:54:17.440Z,1.00
2019-05-10T07:56:45.688Z,1.17
2019-05-10T07:59:16.416Z,1.10
2019-05-10T08:01:43.749Z,1.00
2019-05-10T08:04:13.031Z,1.20
2019-05-10T08:06:47.619Z,1.10
2019-05-10T08:09:10.349Z,1.07
2019-05-10T08:11:39.087Z,1.13
2019-05-10T08:14:11.086Z,1.40
2019-05-10T08:16:36.068Z,1.07
2019-05-10T08:19:03.572Z,1.17
2019-05-10T08:21:32.253Z,1.10
2019-05-10T08:24:05.122Z,1.60
2019-05-10T08:26:28.972Z,1.03
2019-05-10T08:28:56.433Z,1.30
2019-05-10T08:31:26.261Z,0.90
2019-05-10T08:33:58.782Z,1.20
2019-05-10T08:36:23.555Z,1.20
2019-05-10T08:39:03.116Z,1.20
2019-05-10T08:41:22.195Z,1.13
2019-05-10T08:43:49.619Z,1.30
2019-05-10T08:46:19.493Z,1.10
2019-05-10T08:48:50.609Z,1.20
2019-05-10T08:51:15.696Z,1.13
2019-05-10T08:53:47.276Z,1.30
2019-05-10T08:56:20.595Z,0.90
2019-05-10T08:59:00.171Z,1.00
2019-05-10T09:01:30.617Z,1.20
2019-05-10T09:04:00.851Z,1.77
2019-05-10T09:06:27.136Z,1.27
2019-05-10T09:09:01.863Z,1.03
2019-05-10T09:11:23.839Z,1.07
2019-05-10T09:13:53.402Z,1.07
2019-05-10T09:16:20.434Z,1.00
2019-05-10T09:18:51.251Z,0.90
2019-05-10T09:21:17.252Z,1.37
2019-05-10T09:23:44.639Z,1.00
2019-05-10T09:26:16.518Z,0.90
2019-05-10T09:28:42.135Z,0.90
2019-05-10T09:31:18.936Z,1.10
2019-05-10T09:33:43.297Z,0.90
2019-05-10T09:36:08.127Z,1.10
2019-05-10T09:38:39.624Z,0.90
2019-05-10T09:41:04.956Z,1.03
2019-05-10T09:43:32.348Z,0.90
2019-05-10T09:45:59.743Z,1.13
2019-05-10T09:48:27.159Z,1.17
2019-05-10T09:50:56.334Z,0.87
2019-05-10T09:53:29.358Z,1.00
2019-05-10T09:56:01.673Z,1.40
2019-05-10T09:58:22.609Z,1.47
2019-05-10T10:00:50.496Z,1.23
2019-05-10T10:03:18.253Z,1.20
2019-05-10T10:05:48.077Z,1.83
2019-05-10T10:08:14.865Z,1.53
2019-05-10T10:10:42.583Z,1.23
2019-05-10T10:13:13.584Z,1.53
2019-05-10T10:15:39.165Z,1.20
2019-05-10T10:18:06.711Z,1.10
2019-05-10T10:20:36.097Z,1.20
2019-05-10T10:23:03.785Z,1.50
2019-05-10T10:25:35.275Z,1.10
2019-05-10T10:28:00.428Z,1.10
2019-05-10T10:30:31.280Z,1.30
2019-05-10T10:32:58.109Z,1.50
2019-05-10T10:35:27.685Z,3.70
2019-05-10T10:38:00.713Z,2.07
2019-05-10T10:40:24.215Z,1.70
2019-05-10T10:42:51.622Z,2.43
2019-05-10T10:45:19.231Z,1.30
2019-05-10T10:47:47.246Z,1.30
2019-05-10T10:50:17.090Z,1.00
2019-05-10T10:52:44.047Z,1.20
2019-05-10T10:55:13.485Z,1.30
2019-05-10T10:57:40.983Z,1.17
2019-05-10T11:00:09.199Z,1.33
2019-05-10T11:02:36.644Z,1.17
2019-05-10T11:05:04.665Z,1.73
2019-05-10T11:07:33.781Z,1.20
2019-05-10T11:10:14.631Z,1.33
2019-05-10T11:12:30.886Z,1.30
2019-05-10T11:14:58.332Z,1.20
2019-05-10T11:17:25.775Z,1.60
2019-05-10T11:19:53.176Z,1.10
2019-05-10T11:22:21.512Z,1.40
2019-05-10T11:24:51.527Z,1.70
2019-05-10T11:27:18.292Z,1.27
2019-05-10T11:29:45.680Z,1.30
2019-05-10T11:32:16.609Z,1.30
2019-05-10T11:34:42.311Z,0.93
2019-05-10T11:37:09.704Z,1.10
2019-05-10T11:39:41.811Z,1.23
2019-05-10T11:42:07.335Z,1.40
2019-05-10T11:44:35.031Z,1.07
2019-05-10T11:47:02.407Z,1.07
2019-05-10T11:49:30.786Z,1.13
2019-05-10T11:51:58.861Z,0.80
2019-05-10T11:54:27.118Z,1.00
2019-05-10T11:56:58.627Z,0.80
2019-05-10T11:59:27.472Z,1.00
2019-05-10T12:01:57.875Z,1.50
2019-05-10T12:04:33.085Z,0.90
2019-05-10T12:06:51.999Z,0.90
2019-05-10T12:09:21.245Z,0.97
2019-05-10T12:11:52.309Z,1.00
2019-05-10T12:14:17.847Z,0.93
2019-05-10T12:16:45.324Z,0.80
2019-05-10T12:19:19.690Z,0.90
2019-05-10T12:21:41.924Z,0.90
2019-05-10T12:24:26.334Z,0.80
2019-05-10T12:29:13.450Z,0.80
2019-05-10T12:31:37.364Z,0.70
2019-05-10T12:34:09.274Z,0.93
2019-05-10T12:36:33.959Z,1.00
2019-05-10T12:39:01.881Z,1.00
2019-05-10T12:41:31.496Z,0.70
2019-05-10T12:44:04.161Z,0.83
2019-05-10T12:46:30.117Z,0.90
2019-05-10T12:48:57.286Z,1.00
2019-05-10T12:51:24.670Z,0.90
2019-05-10T12:53:52.367Z,0.83
2019-05-10T12:56:19.743Z,0.90
2019-05-10T12:58:56.365Z,0.97
2019-05-10T13:01:16.530Z,0.80
2019-05-10T13:03:44.809Z,0.80
2019-05-10T13:06:12.115Z,0.90
2019-05-10T13:08:39.510Z,0.90
2019-05-10T13:11:07.009Z,0.80
2019-05-10T13:13:34.437Z,0.90
2019-05-10T13:16:03.441Z,0.90
2019-05-10T13:21:00.366Z,0.83
2019-05-10T13:23:28.001Z,0.90
2019-05-10T13:25:55.480Z,0.90
2019-05-10T13:28:22.926Z,1.00
2019-05-10T13:30:50.343Z,0.90
2019-05-10T13:33:28.702Z,0.87
2019-05-10T13:35:50.786Z,0.93
2019-05-10T13:38:16.365Z,0.90
2019-05-10T13:40:45.664Z,0.93
2019-05-10T13:43:17.447Z,1.30
2019-05-10T13:45:42.503Z,1.10
2019-05-10T13:48:09.941Z,1.13
2019-05-10T13:50:37.492Z,0.90
2019-05-10T13:53:04.862Z,1.00
2019-05-10T13:55:32.576Z,1.10
2019-05-10T13:57:59.990Z,0.97
2019-05-10T14:00:32.993Z,0.80
2019-05-10T14:02:57.114Z,0.90
2019-05-10T14:05:25.013Z,0.90
2019-05-10T14:07:53.116Z,0.80
2019-05-10T14:10:23.583Z,0.97
2019-05-10T14:12:50.088Z,0.90
2019-05-10T14:15:17.599Z,0.80
2019-05-10T14:17:45.061Z,0.70
2019-05-10T14:20:19.538Z,0.90
2019-05-10T14:22:42.176Z,0.90
2019-05-10T14:25:10.252Z,1.07
2019-05-10T14:27:38.598Z,0.90
2019-05-10T14:30:13.532Z,0.97
2019-05-10T14:32:39.280Z,1.00
2019-05-10T14:35:07.133Z,1.30
2019-05-10T14:37:34.499Z,2.10
2019-05-10T14:40:02.148Z,2.37
2019-05-10T14:42:33.325Z,1.70
2019-05-10T14:44:58.764Z,2.77
2019-05-10T14:47:26.469Z,2.60
2019-05-10T14:49:53.868Z,2.53
2019-05-10T14:52:22.703Z,2.57
2019-05-10T14:54:55.394Z,2.40
2019-05-10T14:57:19.596Z,2.90
2019-05-10T14:59:47.005Z,2.40
2019-05-10T15:02:17.048Z,2.37
2019-05-10T15:04:46.728Z,3.00
2019-05-10T15:07:14.163Z,2.67
2019-05-10T15:09:42.600Z,2.50
2019-05-10T15:12:15.393Z,2.40
2019-05-10T15:14:39.202Z,2.43
2019-05-10T15:17:06.791Z,2.30
2019-05-10T15:19:34.196Z,2.37
2019-05-10T15:22:01.854Z,2.33
2019-05-10T15:24:29.363Z,2.70
2019-05-10T15:26:56.763Z,2.37
2019-05-10T15:29:24.801Z,2.17
2019-05-10T15:31:52.669Z,2.40
2019-05-10T15:34:20.081Z,1.97
2019-05-10T15:36:47.477Z,2.70
2019-05-10T15:39:14.960Z,2.23
2019-05-10T15:41:42.348Z,2.37
2019-05-10T15:44:09.760Z,2.60
2019-05-10T15:46:41.870Z,2.33
2019-05-10T15:49:06.424Z,2.50
2019-05-10T15:51:36.386Z,2.00
2019-05-10T15:54:05.383Z,1.67
2019-05-10T15:56:35.658Z,2.20
2019-05-10T15:59:01.438Z,2.33
2019-05-10T16:01:29.180Z,2.23
2019-05-10T16:03:56.679Z,1.90
2019-05-10T16:06:24.564Z,2.00
2019-05-10T16:08:51.967Z,1.80
2019-05-10T16:11:20.806Z,1.80
2019-05-10T16:13:48.525Z,1.90
2019-05-10T16:16:15.921Z,1.60
2019-05-10T16:18:43.311Z,1.80
2019-05-10T16:21:15.114Z,1.90
2019-05-10T16:23:41.362Z,1.40
2019-05-10T16:26:09.148Z,1.50
2019-05-10T16:28:36.621Z,1.50
2019-05-10T16:31:05.942Z,1.63
2019-05-10T16:33:33.341Z,1.63
2019-05-10T16:36:01.007Z,1.50
2019-05-10T16:38:28.416Z,1.47
2019-05-10T16:40:59.412Z,1.73
2019-05-10T16:43:25.204Z,1.37
2019-05-10T16:45:52.640Z,1.30
2019-05-10T16:48:20.045Z,1.30
2019-05-10T16:50:47.484Z,2.00
2019-05-10T16:53:14.870Z,2.10
2019-05-10T16:55:42.936Z,2.23
2019-05-10T16:58:15.038Z,1.40
2019-05-10T17:00:40.817Z,1.70
2019-05-10T17:03:13.074Z,1.80
2019-05-10T17:05:52.336Z,1.40
2019-05-10T17:08:07.865Z,1.90
2019-05-10T17:10:35.266Z,1.50
2019-05-10T17:13:04.920Z,1.93
2019-05-10T17:15:39.096Z,2.00
2019-05-10T17:18:01.280Z,1.50
2019-05-10T17:20:29.047Z,1.60
2019-05-10T17:23:07.531Z,1.63
2019-05-10T17:25:27.454Z,1.33
2019-05-10T17:27:57.521Z,1.70
2019-05-10T17:30:27.847Z,1.33
2019-05-10T17:32:57.657Z,1.50
2019-05-10T17:35:22.576Z,1.43
2019-05-10T17:37:52.854Z,1.20
2019-05-10T17:40:19.354Z,1.10
2019-05-10T17:42:47.061Z,1.10
2019-05-10T17:45:14.457Z,1.00
2019-05-10T17:47:41.856Z,1.20
2019-05-10T17:50:09.462Z,1.20
2019-05-10T17:52:36.845Z,1.30
2019-05-10T17:55:04.623Z,1.30
2019-05-10T17:57:32.084Z,1.20
2019-05-10T17:59:59.484Z,1.30
2019-05-10T18:02:26.909Z,1.43
2019-05-10T18:04:54.348Z,1.17
2019-05-10T18:07:21.895Z,1.20
2019-05-10T18:09:49.695Z,1.27
2019-05-10T18:12:20.371Z,1.10
2019-05-10T18:14:50.367Z,1.47
2019-05-10T18:17:15.719Z,1.20
2019-05-10T18:19:43.283Z,1.30
2019-05-10T18:22:10.667Z,1.90
2019-05-10T18:24:42.221Z,2.80
2019-05-10T18:27:07.716Z,6.50
2019-05-10T18:29:35.124Z,3.83
2019-05-10T18:32:02.532Z,3.37
2019-05-10T18:34:33.263Z,2.70
2019-05-10T18:36:59.314Z,2.73
2019-05-10T18:39:26.716Z,2.83
2019-05-10T18:41:54.139Z,2.70
2019-05-10T18:44:21.546Z,2.30
2019-05-10T18:46:48.951Z,2.30
2019-05-10T18:49:16.423Z,2.13
2019-05-10T18:51:43.851Z,2.50
2019-05-10T18:54:11.240Z,3.37
2019-05-10T18:56:38.679Z,2.60
2019-05-10T18:59:07.336Z,2.77
2019-05-10T19:01:38.787Z,2.30
2019-05-10T19:04:07.391Z,2.10
2019-05-10T19:06:34.260Z,2.60
2019-05-10T19:09:03.375Z,2.40
2019-05-10T19:11:33.279Z,2.50
2019-05-10T19:14:00.174Z,2.27
2019-05-10T19:16:32.136Z,1.90
2019-05-10T19:19:01.807Z,2.50
2019-05-10T19:21:30.638Z,2.00
2019-05-10T19:23:55.440Z,2.20
2019-05-10T19:26:23.769Z,2.00
2019-05-10T19:28:52.087Z,2.00
2019-05-10T19:31:19.481Z,2.30
2019-05-10T19:33:47.262Z,2.23
2019-05-10T19:36:14.806Z,2.43
2019-05-10T19:38:42.224Z,2.40
2019-05-10T19:41:09.660Z,2.50
2019-05-10T19:43:37.076Z,2.57
2019-05-10T19:46:05.684Z,2.30
2019-05-10T19:48:35.446Z,2.10
2019-05-10T19:51:03.082Z,2.30
2019-05-10T19:53:36.484Z,2.27
2019-05-10T19:56:03.972Z,2.53
2019-05-10T19:58:32.332Z,2.33
2019-05-10T20:01:01.123Z,2.20
2019-05-10T20:03:28.597Z,1.70
2019-05-10T20:05:56.251Z,1.90
2019-05-10T20:08:23.916Z,1.73
2019-05-10T20:10:51.376Z,1.40
2019-05-10T20:13:18.981Z,1.60
2019-05-10T20:15:46.526Z,1.90
2019-05-10T20:18:14.171Z,2.30
2019-05-10T20:20:41.797Z,2.63
2019-05-10T20:23:09.193Z,2.77
2019-05-10T20:25:36.676Z,2.70
2019-05-10T20:28:06.417Z,2.63
2019-05-10T20:30:33.404Z,2.87
2019-05-10T20:33:00.895Z,4.23
2019-05-10T20:35:28.427Z,7.03
2019-05-10T20:38:01.925Z,5.40
2019-05-10T20:40:25.054Z,4.47
2019-05-10T20:42:52.461Z,3.50
2019-05-10T20:45:19.852Z,3.03
2019-05-10T20:47:47.451Z,2.70
2019-05-10T20:50:15.040Z,2.60
2019-05-10T20:52:42.449Z,3.00
2019-05-10T20:55:10.143Z,5.60
2019-05-10T20:57:37.543Z,4.83
2019-05-10T21:00:05.253Z,3.33
2019-05-10T21:02:32.708Z,3.30
2019-05-10T21:05:00.109Z,3.77
2019-05-10T21:07:27.695Z,3.60
2019-05-10T21:09:55.331Z,3.00
2019-05-10T21:12:25.584Z,2.60
2019-05-10T21:14:53.004Z,3.20
2019-05-10T21:17:20.587Z,2.93
2019-05-10T21:19:47.999Z,2.90
2019-05-10T21:22:15.395Z,2.30
2019-05-10T21:24:42.848Z,3.43
2019-05-10T21:27:10.246Z,2.73
2019-05-10T21:29:37.643Z,2.10
2019-05-10T21:32:05.870Z,1.97
2019-05-10T21:34:33.663Z,2.53
2019-05-10T21:37:00.991Z,2.20
2019-05-10T21:39:28.864Z,2.40
2019-05-10T21:41:56.468Z,1.70
2019-05-10T21:44:25.833Z,2.40
2019-05-10T21:46:54.062Z,2.60
2019-05-10T21:49:21.510Z,1.77
2019-05-10T21:51:49.295Z,1.80
2019-05-10T21:54:18.661Z,2.07
2019-05-10T21:56:45.976Z,1.70
2019-05-10T21:59:13.375Z,1.60
2019-05-10T22:01:40.812Z,1.50
2019-05-10T22:04:08.193Z,1.40
2019-05-10T22:06:35.877Z,1.27
2019-05-10T22:09:06.640Z,1.30
2019-05-10T22:11:34.023Z,1.40
2019-05-10T22:14:01.415Z,1.60
2019-05-10T22:16:29.087Z,1.90
2019-05-10T22:19:01.293Z,2.07
2019-05-10T22:21:28.656Z,1.77
2019-05-10T22:23:56.203Z,1.67
2019-05-10T22:26:23.604Z,1.63
2019-05-10T22:28:50.988Z,1.60
2019-05-10T22:31:18.775Z,1.50
2019-05-10T22:33:46.173Z,1.30
2019-05-10T22:36:13.591Z,1.60
2019-05-10T22:38:41.179Z,1.73
2019-05-10T22:41:08.571Z,1.50
2019-05-10T22:43:35.966Z,1.73
2019-05-10T22:46:03.551Z,1.50
2019-05-10T22:48:30.947Z,1.50
2019-05-10T22:50:58.353Z,1.53
2019-05-10T22:53:25.939Z,1.30
2019-05-10T22:55:53.342Z,1.30
2019-05-10T22:58:20.740Z,1.20
2019-05-10T23:00:48.337Z,1.57
2019-05-10T23:03:15.743Z,1.70
2019-05-10T23:05:43.151Z,1.40
2019-05-10T23:08:10.588Z,1.30
2019-05-10T23:10:38.493Z,1.50
2019-05-10T23:13:05.901Z,1.40
2019-05-10T23:15:33.380Z,1.33
2019-05-10T23:18:00.782Z,1.43
2019-05-10T23:20:28.174Z,1.53
2019-05-10T23:22:55.615Z,1.33
2019-05-10T23:25:23.011Z,1.30
2019-05-10T23:27:50.421Z,1.53
2019-05-10T23:30:18.179Z,1.40
2019-05-10T23:32:45.574Z,1.77
2019-05-10T23:35:12.967Z,1.70
2019-05-10T23:37:40.446Z,1.67
2019-05-10T23:40:08.367Z,1.30
2019-05-10T23:42:35.755Z,1.20
2019-05-10T23:45:03.855Z,1.20
2019-05-10T23:47:31.260Z,1.60
2019-05-10T23:49:58.646Z,1.40
2019-05-10T23:52:26.979Z,1.80
2019-05-10T23:54:54.380Z,1.77
2019-05-10T23:57:21.780Z,1.60
2019-05-10T23:59:49.224Z,2.10
